createdAt,value
2022-12-15T00:00:12.382Z,59.73
2022-12-15T00:03:25.944Z,60.43
2022-12-15T00:06:12.476Z,62.12
2022-12-15T00:08:58.894Z,68.45
2022-12-15T00:11:45.054Z,68.85
2022-12-15T00:14:31.647Z,65.72
2022-12-15T00:17:17.732Z,64.82
2022-12-15T00:20:04.170Z,65.06
2022-12-15T00:22:50.599Z,63.90
2022-12-15T00:25:37.213Z,62.89
2022-12-15T00:28:23.841Z,62.07
2022-12-15T00:31:10.328Z,61.22
2022-12-15T00:33:56.717Z,60.54
2022-12-15T00:36:42.994Z,60.18
2022-12-15T00:39:10.667Z,60.23
2022-12-15T00:41:38.327Z,60.02
2022-12-15T00:44:05.935Z,59.07
2022-12-15T00:46:52.258Z,57.78
2022-12-15T00:49:46.127Z,58.63
2022-12-15T00:52:33.971Z,59.77
2022-12-15T00:55:20.902Z,60.81
2022-12-15T00:58:07.058Z,61.30
2022-12-15T01:00:53.413Z,61.47
2022-12-15T01:03:42.450Z,65.77
2022-12-15T01:06:32.371Z,69.22
2022-12-15T01:09:20.020Z,67.39
2022-12-15T01:12:06.262Z,65.17
2022-12-15T01:14:52.944Z,63.62
2022-12-15T01:17:40.015Z,62.76
2022-12-15T01:20:21.095Z,61.60
2022-12-15T01:22:52.887Z,58.92
2022-12-15T01:25:23.673Z,55.36
2022-12-15T01:27:52.309Z,55.23
2022-12-15T01:30:23.037Z,56.70
2022-12-15T01:32:51.322Z,57.99
2022-12-15T01:35:20.308Z,59.14
2022-12-15T01:37:50.044Z,60.06
2022-12-15T01:40:38.409Z,60.68
2022-12-15T01:43:18.761Z,61.68
2022-12-15T01:46:01.021Z,62.11
2022-12-15T01:48:34.482Z,66.63
2022-12-15T01:51:11.463Z,72.21
2022-12-15T01:54:05.068Z,67.61
2022-12-15T01:56:38.316Z,58.68
2022-12-15T01:59:10.574Z,52.78
2022-12-15T02:01:38.434Z,52.87
2022-12-15T02:04:07.933Z,54.26
2022-12-15T02:06:36.531Z,55.43
2022-12-15T02:09:05.074Z,56.71
2022-12-15T02:11:35.487Z,57.16
2022-12-15T02:14:06.462Z,57.77
2022-12-15T02:16:57.162Z,58.59
2022-12-15T02:19:34.276Z,59.56
2022-12-15T02:22:08.023Z,60.95
2022-12-15T02:24:58.094Z,61.91
2022-12-15T02:27:53.207Z,66.11
2022-12-15T02:30:45.182Z,69.68
2022-12-15T02:33:27.615Z,66.14
2022-12-15T02:36:05.475Z,63.39
2022-12-15T02:38:38.080Z,62.59
2022-12-15T02:41:06.676Z,62.13
2022-12-15T02:43:38.794Z,62.01
2022-12-15T02:46:27.125Z,60.63
2022-12-15T02:49:15.042Z,61.01
2022-12-15T02:52:11.917Z,60.80
2022-12-15T02:55:03.259Z,59.85
2022-12-15T02:57:55.202Z,60.82
2022-12-15T03:00:23.101Z,59.62
2022-12-15T03:02:55.509Z,57.65
2022-12-15T03:05:24.623Z,57.10
2022-12-15T03:07:54.581Z,57.96
2022-12-15T03:10:23.544Z,58.91
2022-12-15T03:12:51.816Z,59.19
2022-12-15T03:15:19.529Z,60.50
2022-12-15T03:17:47.243Z,60.56
2022-12-15T03:20:15.869Z,61.22
2022-12-15T03:22:44.701Z,61.89
2022-12-15T03:25:12.380Z,64.59
2022-12-15T03:27:40.050Z,69.72
2022-12-15T03:30:08.340Z,68.13
2022-12-15T03:32:36.002Z,66.24
2022-12-15T03:35:04.096Z,65.14
2022-12-15T03:37:31.743Z,63.82
2022-12-15T03:39:59.484Z,63.16
2022-12-15T03:42:45.596Z,62.69
2022-12-15T03:45:13.260Z,63.00
2022-12-15T03:47:42.142Z,59.24
2022-12-15T03:50:11.068Z,54.39
2022-12-15T03:52:38.730Z,54.28
2022-12-15T03:55:07.599Z,55.70
2022-12-15T03:57:35.293Z,57.05
2022-12-15T04:00:04.778Z,58.44
2022-12-15T04:02:41.210Z,59.41
2022-12-15T04:05:33.458Z,60.38
2022-12-15T04:08:01.895Z,60.94
2022-12-15T04:10:34.647Z,61.65
2022-12-15T04:13:05.770Z,65.02
2022-12-15T04:15:34.752Z,69.52
2022-12-15T04:18:03.732Z,67.33
2022-12-15T04:20:33.081Z,64.15
2022-12-15T04:23:01.103Z,63.32
2022-12-15T04:25:47.840Z,60.56
2022-12-15T04:28:34.084Z,52.72
2022-12-15T04:31:34.079Z,51.77
2022-12-15T04:34:23.760Z,53.29
2022-12-15T04:37:12.058Z,54.58
2022-12-15T04:40:01.282Z,55.30
2022-12-15T04:42:50.117Z,55.90
2022-12-15T04:45:40.287Z,56.76
2022-12-15T04:48:26.645Z,58.77
2022-12-15T04:51:13.118Z,59.64
2022-12-15T04:54:01.892Z,60.31
2022-12-15T04:56:49.872Z,61.77
2022-12-15T04:59:37.142Z,67.02
2022-12-15T05:02:23.700Z,69.59
2022-12-15T05:05:10.264Z,67.29
2022-12-15T05:07:56.452Z,64.40
2022-12-15T05:10:42.729Z,63.58
2022-12-15T05:13:29.368Z,62.65
2022-12-15T05:16:15.980Z,59.89
2022-12-15T05:19:02.152Z,56.42
2022-12-15T05:21:48.225Z,56.20
2022-12-15T05:24:34.679Z,57.04
2022-12-15T05:27:21.121Z,57.43
2022-12-15T05:30:07.665Z,57.91
2022-12-15T05:32:35.294Z,59.23
2022-12-15T05:35:02.951Z,60.78
2022-12-15T05:37:30.625Z,61.48
2022-12-15T05:39:58.323Z,62.17
2022-12-15T05:42:25.935Z,65.79
2022-12-15T05:44:53.559Z,70.30
2022-12-15T05:47:21.224Z,68.53
2022-12-15T05:49:49.257Z,66.91
2022-12-15T05:52:17.092Z,65.44
2022-12-15T05:54:44.747Z,63.49
2022-12-15T05:57:12.435Z,60.11
2022-12-15T05:59:40.095Z,56.99
2022-12-15T06:02:07.726Z,56.37
2022-12-15T06:04:35.996Z,57.19
2022-12-15T06:07:03.724Z,57.95
2022-12-15T06:09:31.423Z,58.26
2022-12-15T06:11:59.199Z,59.68
2022-12-15T06:14:26.785Z,60.31
2022-12-15T06:16:54.506Z,61.08
2022-12-15T06:19:22.166Z,63.18
2022-12-15T06:21:49.900Z,66.16
2022-12-15T06:24:17.853Z,65.79
2022-12-15T06:26:46.001Z,65.51
2022-12-15T06:29:18.570Z,64.78
2022-12-15T06:31:46.801Z,65.06
2022-12-15T06:34:16.725Z,66.01
2022-12-15T06:36:44.462Z,63.29
2022-12-15T06:39:16.481Z,60.11
2022-12-15T06:41:44.558Z,56.18
2022-12-15T06:44:15.011Z,54.84
2022-12-15T06:46:43.316Z,55.26
2022-12-15T06:49:10.948Z,56.54
2022-12-15T06:51:38.702Z,58.11
2022-12-15T06:54:06.318Z,59.35
2022-12-15T06:56:36.204Z,60.26
2022-12-15T06:59:05.457Z,61.34
2022-12-15T07:01:33.451Z,64.11
2022-12-15T07:04:02.847Z,67.57
2022-12-15T07:06:38.332Z,66.08
2022-12-15T07:09:13.800Z,65.91
2022-12-15T07:11:41.537Z,63.75
2022-12-15T07:14:10.101Z,58.57
2022-12-15T07:16:38.005Z,54.69
2022-12-15T07:19:05.857Z,54.56
2022-12-15T07:21:33.476Z,55.67
2022-12-15T07:24:02.189Z,57.10
2022-12-15T07:26:30.536Z,58.31
2022-12-15T07:28:58.298Z,59.48
2022-12-15T07:31:25.993Z,60.59
2022-12-15T07:33:54.711Z,61.42
2022-12-15T07:36:22.730Z,61.71
2022-12-15T07:38:51.553Z,63.84
2022-12-15T07:41:20.320Z,68.90
2022-12-15T07:43:48.543Z,67.06
2022-12-15T07:46:16.908Z,64.96
2022-12-15T07:48:50.419Z,66.13
2022-12-15T07:51:20.360Z,63.61
2022-12-15T07:53:50.206Z,57.07
2022-12-15T07:56:19.722Z,52.77
2022-12-15T07:58:47.916Z,53.33
2022-12-15T08:01:16.044Z,54.70
2022-12-15T08:03:44.905Z,56.24
2022-12-15T08:06:14.491Z,57.49
2022-12-15T08:08:45.004Z,58.23
2022-12-15T08:11:21.203Z,58.94
2022-12-15T08:14:02.542Z,59.58
2022-12-15T08:16:33.285Z,59.90
2022-12-15T08:19:01.218Z,60.73
2022-12-15T08:21:31.203Z,61.13
2022-12-15T08:24:00.871Z,62.84
2022-12-15T08:26:31.029Z,66.94
2022-12-15T08:31:54.078Z,65.67
2022-12-15T08:34:22.176Z,66.73
2022-12-15T08:36:50.630Z,62.92
2022-12-15T08:39:18.367Z,60.48
2022-12-15T08:41:46.241Z,59.21
2022-12-15T08:44:13.964Z,57.95
2022-12-15T08:46:41.706Z,58.81
2022-12-15T08:49:10.213Z,58.82
2022-12-15T08:51:37.932Z,59.41
2022-12-15T08:54:05.636Z,60.17
2022-12-15T08:56:33.312Z,60.60
2022-12-15T08:59:02.220Z,61.56
2022-12-15T09:01:32.406Z,63.43
2022-12-15T09:04:01.326Z,65.62
2022-12-15T09:06:32.012Z,65.89
2022-12-15T09:09:03.156Z,66.09
2022-12-15T09:11:31.393Z,65.79
2022-12-15T09:13:59.136Z,65.42
2022-12-15T09:16:27.883Z,64.85
2022-12-15T09:18:58.037Z,64.61
2022-12-15T09:21:26.885Z,64.18
2022-12-15T09:24:00.531Z,63.77
2022-12-15T09:26:31.190Z,63.52
2022-12-15T09:28:59.237Z,63.26
2022-12-15T09:31:29.865Z,63.23
2022-12-15T09:33:59.738Z,63.19
2022-12-15T09:36:28.515Z,63.05
2022-12-15T09:38:56.323Z,63.41
2022-12-15T09:41:27.183Z,63.83
2022-12-15T09:43:58.988Z,63.82
2022-12-15T09:46:50.357Z,62.33
2022-12-15T09:49:38.073Z,61.77
2022-12-15T09:52:29.154Z,61.90
2022-12-15T09:55:01.753Z,61.58
2022-12-15T09:57:53.068Z,61.02
2022-12-15T10:00:33.109Z,60.19
2022-12-15T10:03:01.044Z,55.89
2022-12-15T10:06:14.541Z,54.56
2022-12-15T10:08:43.845Z,55.60
2022-12-15T10:11:20.361Z,57.67
2022-12-15T10:14:26.007Z,59.46
2022-12-15T10:17:12.092Z,60.09
2022-12-15T10:19:52.020Z,60.58
2022-12-15T10:22:24.940Z,61.12
2022-12-15T10:25:11.127Z,61.87
2022-12-15T10:28:17.859Z,65.19
2022-12-15T10:31:02.234Z,68.77
2022-12-15T10:33:39.522Z,66.45
2022-12-15T10:36:14.916Z,64.78
2022-12-15T10:38:47.352Z,62.72
2022-12-15T10:41:23.333Z,61.76
2022-12-15T10:43:52.526Z,61.91
2022-12-15T10:46:22.797Z,60.63
2022-12-15T10:49:07.084Z,59.99
2022-12-15T10:51:51.251Z,60.49
2022-12-15T10:54:19.022Z,60.46
2022-12-15T10:56:58.157Z,60.02
2022-12-15T10:59:31.706Z,60.20
2022-12-15T11:02:26.149Z,59.97
2022-12-15T11:05:05.312Z,59.55
2022-12-15T11:07:42.711Z,58.40
2022-12-15T11:10:50.566Z,57.05
2022-12-15T11:13:22.480Z,58.89
2022-12-15T11:15:53.066Z,62.15
2022-12-15T11:18:41.971Z,63.87
2022-12-15T11:21:18.595Z,64.20
2022-12-15T11:23:52.370Z,64.13
2022-12-15T11:26:58.675Z,63.56
2022-12-15T11:29:34.472Z,62.79
2022-12-15T11:32:06.910Z,62.77
2022-12-15T11:34:44.244Z,62.77
2022-12-15T11:37:36.504Z,62.84
2022-12-15T11:40:40.106Z,62.26
2022-12-15T11:43:45.671Z,62.56
2022-12-15T11:46:24.331Z,62.27
2022-12-15T11:48:58.090Z,62.77
2022-12-15T11:51:49.964Z,63.04
2022-12-15T11:54:42.630Z,62.66
2022-12-15T11:57:22.276Z,61.94
2022-12-15T12:00:28.339Z,61.65
2022-12-15T12:03:16.265Z,61.52
2022-12-15T12:06:29.343Z,60.32
2022-12-15T12:09:07.350Z,57.55
2022-12-15T12:11:43.806Z,56.49
2022-12-15T12:14:30.216Z,57.17
2022-12-15T12:17:11.496Z,58.20
2022-12-15T12:19:58.003Z,58.25
2022-12-15T12:22:40.780Z,59.17
2022-12-15T12:25:20.759Z,59.70
2022-12-15T12:27:52.965Z,61.35
2022-12-15T12:30:25.066Z,64.06
2022-12-15T12:33:02.031Z,67.99
2022-12-15T12:35:55.261Z,66.93
2022-12-15T12:38:31.306Z,65.71
2022-12-15T12:41:18.909Z,63.76
2022-12-15T12:43:58.880Z,62.67
2022-12-15T12:46:48.777Z,61.24
2022-12-15T12:49:26.897Z,60.44
2022-12-15T12:51:58.662Z,60.11
2022-12-15T12:54:35.312Z,60.52
2022-12-15T12:57:31.875Z,60.46
2022-12-15T13:00:13.026Z,59.01
2022-12-15T13:02:50.504Z,58.02
2022-12-15T13:05:37.215Z,58.60
2022-12-15T13:08:10.852Z,60.19
2022-12-15T13:10:41.284Z,61.03
2022-12-15T13:13:27.745Z,65.14
2022-12-15T13:16:27.623Z,66.51
2022-12-15T13:19:09.007Z,64.86
2022-12-15T13:21:45.150Z,64.50
2022-12-15T13:24:26.074Z,64.18
2022-12-15T13:27:04.221Z,64.54
2022-12-15T13:29:35.018Z,65.00
2022-12-15T13:32:03.914Z,63.80
2022-12-15T13:34:38.991Z,63.31
2022-12-15T13:37:45.631Z,64.16
2022-12-15T13:40:22.701Z,64.73
2022-12-15T13:43:05.885Z,63.33
2022-12-15T13:45:44.222Z,61.76
2022-12-15T13:48:44.409Z,61.43
2022-12-15T13:51:14.919Z,60.95
2022-12-15T13:53:51.629Z,60.94
2022-12-15T13:56:23.402Z,60.38
2022-12-15T13:59:00.721Z,60.06
2022-12-15T14:01:32.980Z,60.25
2022-12-15T14:04:17.921Z,60.44
2022-12-15T14:06:53.676Z,60.68
2022-12-15T14:09:29.484Z,61.79
2022-12-15T14:11:57.917Z,63.09
2022-12-15T14:14:29.732Z,62.22
2022-12-15T14:17:18.014Z,60.85
2022-12-15T14:19:50.889Z,60.09
2022-12-15T14:22:28.512Z,59.64
2022-12-15T14:25:14.130Z,55.09
2022-12-15T14:27:42.040Z,53.70
2022-12-15T14:30:26.803Z,54.91
2022-12-15T14:32:59.610Z,56.83
2022-12-15T14:35:32.109Z,58.42
2022-12-15T14:38:02.762Z,58.78
2022-12-15T14:40:31.232Z,59.78
2022-12-15T14:42:59.444Z,60.56
2022-12-15T14:45:31.212Z,61.81
2022-12-15T14:51:02.601Z,69.69
2022-12-15T14:53:38.033Z,67.27
2022-12-15T14:56:27.612Z,65.53
2022-12-15T14:59:18.101Z,63.95
2022-12-15T15:01:59.612Z,61.83
2022-12-15T15:04:32.442Z,61.39
2022-12-15T15:07:06.231Z,58.71
2022-12-15T15:09:40.660Z,56.15
2022-12-15T15:12:18.194Z,55.97
2022-12-15T15:14:58.012Z,56.78
2022-12-15T15:17:31.001Z,57.79
2022-12-15T15:20:17.455Z,59.70
2022-12-15T15:22:46.710Z,60.31
2022-12-15T15:25:28.316Z,60.67
2022-12-15T15:28:17.939Z,61.23
2022-12-15T15:30:56.556Z,64.77
2022-12-15T15:33:25.177Z,69.35
2022-12-15T15:35:56.119Z,67.18
2022-12-15T15:38:26.917Z,65.44
2022-12-15T15:41:00.413Z,64.78
2022-12-15T15:43:28.963Z,63.43
2022-12-15T15:46:08.251Z,62.45
2022-12-15T15:48:41.704Z,61.49
2022-12-15T15:51:09.460Z,61.32
2022-12-15T15:53:37.734Z,60.90
2022-12-15T15:56:08.876Z,60.53
2022-12-15T15:58:36.890Z,60.67
2022-12-15T16:01:09.518Z,61.17
2022-12-15T16:03:41.299Z,59.71
2022-12-15T16:06:19.388Z,58.09
2022-12-15T16:08:50.121Z,57.68
2022-12-15T16:11:18.028Z,58.37
2022-12-15T16:13:45.929Z,59.14
2022-12-15T16:16:19.740Z,59.94
2022-12-15T16:18:47.657Z,61.04
2022-12-15T16:21:16.772Z,61.63
2022-12-15T16:23:47.702Z,63.79
2022-12-15T16:26:19.599Z,67.47
2022-12-15T16:28:48.899Z,65.92
2022-12-15T16:31:37.289Z,65.33
2022-12-15T16:34:08.626Z,64.44
2022-12-15T16:36:36.525Z,63.54
2022-12-15T16:39:04.690Z,63.02
2022-12-15T16:41:32.853Z,62.65
2022-12-15T16:44:00.487Z,62.52
2022-12-15T16:46:28.218Z,63.14
2022-12-15T16:48:55.992Z,61.64
2022-12-15T16:51:23.628Z,60.89
2022-12-15T16:53:51.263Z,60.56
2022-12-15T16:56:19.256Z,60.60
2022-12-15T16:58:48.895Z,60.88
2022-12-15T17:01:22.143Z,60.17
2022-12-15T17:03:50.051Z,59.62
2022-12-15T17:06:17.853Z,58.31
2022-12-15T17:08:54.136Z,57.39
2022-12-15T17:11:24.565Z,57.75
2022-12-15T17:13:55.710Z,58.58
2022-12-15T17:16:25.783Z,58.91
2022-12-15T17:18:54.341Z,59.91
2022-12-15T17:21:53.230Z,60.48
2022-12-15T17:24:22.349Z,60.79
2022-12-15T17:26:50.649Z,61.56
2022-12-15T17:29:23.451Z,62.14
2022-12-15T17:31:51.335Z,65.20
2022-12-15T17:34:27.209Z,68.52
2022-12-15T17:36:56.672Z,66.72
2022-12-15T17:39:25.788Z,66.16
2022-12-15T17:42:02.724Z,66.36
2022-12-15T17:44:36.925Z,64.52
2022-12-15T17:47:07.836Z,63.75
2022-12-15T17:49:38.012Z,62.53
2022-12-15T17:52:09.182Z,62.31
2022-12-15T17:54:36.927Z,61.26
2022-12-15T17:57:04.642Z,60.12
2022-12-15T17:59:32.317Z,59.62
2022-12-15T18:02:00.092Z,57.46
2022-12-15T18:04:27.969Z,56.40
2022-12-15T18:07:01.456Z,56.86
2022-12-15T18:09:30.052Z,57.62
2022-12-15T18:11:58.113Z,58.62
2022-12-15T18:14:27.421Z,59.27
2022-12-15T18:16:55.372Z,60.01
2022-12-15T18:19:23.424Z,60.55
2022-12-15T18:21:51.108Z,61.16
2022-12-15T18:24:21.636Z,61.84
2022-12-15T18:26:49.303Z,64.02
2022-12-15T18:29:18.226Z,68.50
2022-12-15T18:31:48.357Z,67.26
2022-12-15T18:34:18.893Z,66.31
2022-12-15T18:36:46.714Z,64.66
2022-12-15T18:39:23.249Z,62.73
2022-12-15T18:41:52.529Z,61.63
2022-12-15T18:44:26.074Z,60.95
2022-12-15T18:46:55.098Z,61.95
2022-12-15T18:49:23.796Z,56.43
2022-12-15T18:51:51.724Z,52.86
2022-12-15T18:54:22.212Z,53.45
2022-12-15T18:56:50.532Z,54.71
2022-12-15T18:59:19.455Z,56.07
2022-12-15T19:01:48.730Z,57.12
2022-12-15T19:04:16.783Z,57.97
2022-12-15T19:06:45.030Z,58.71
2022-12-15T19:09:21.756Z,59.26
2022-12-15T19:12:09.008Z,59.97
2022-12-15T19:14:42.995Z,60.62
2022-12-15T19:17:31.531Z,61.58
2022-12-15T19:20:17.894Z,61.31
2022-12-15T19:22:47.788Z,65.02
2022-12-15T19:25:25.372Z,68.93
2022-12-15T19:28:01.029Z,67.24
2022-12-15T19:30:36.921Z,65.42
2022-12-15T19:33:08.081Z,63.76
2022-12-15T19:35:37.189Z,62.26
2022-12-15T19:38:06.599Z,62.64
2022-12-15T19:40:37.531Z,61.62
2022-12-15T19:43:05.483Z,58.75
2022-12-15T19:45:33.716Z,56.11
2022-12-15T19:48:01.480Z,56.22
2022-12-15T19:50:33.327Z,57.08
2022-12-15T19:53:03.532Z,57.95
2022-12-15T19:55:34.156Z,58.61
2022-12-15T19:58:27.512Z,59.20
2022-12-15T20:00:58.449Z,59.67
2022-12-15T20:03:27.404Z,60.26
2022-12-15T20:05:57.324Z,60.82
2022-12-15T20:08:28.168Z,61.28
2022-12-15T20:10:56.502Z,61.75
2022-12-15T20:13:26.414Z,62.15
2022-12-15T20:15:55.013Z,65.71
2022-12-15T20:18:22.793Z,70.06
2022-12-15T20:20:50.840Z,65.01
2022-12-15T20:23:27.750Z,61.20
2022-12-15T20:25:56.184Z,59.91
2022-12-15T20:28:27.269Z,56.10
2022-12-15T20:30:56.678Z,54.17
2022-12-15T20:33:24.573Z,54.63
2022-12-15T20:35:52.834Z,55.60
2022-12-15T20:38:28.806Z,56.66
2022-12-15T20:40:57.550Z,57.56
2022-12-15T20:43:26.550Z,58.31
2022-12-15T20:46:05.234Z,58.71
2022-12-15T20:48:36.618Z,59.14
2022-12-15T20:51:09.463Z,59.44
2022-12-15T20:53:39.080Z,62.01
2022-12-15T20:56:07.309Z,66.38
2022-12-15T20:58:41.224Z,63.63
2022-12-15T21:01:24.581Z,61.38
2022-12-15T21:03:55.873Z,60.87
2022-12-15T21:06:25.099Z,58.70
2022-12-15T21:08:53.209Z,57.12
2022-12-15T21:11:26.157Z,56.96
2022-12-15T21:13:56.772Z,55.62
2022-12-15T21:16:28.198Z,55.67
2022-12-15T21:19:20.221Z,55.42
2022-12-15T21:21:46.524Z,54.14
2022-12-15T21:24:22.707Z,53.55
2022-12-15T21:26:51.444Z,53.55
2022-12-15T21:29:24.784Z,53.72
2022-12-15T21:31:52.817Z,53.92
2022-12-15T21:34:20.515Z,53.78
2022-12-15T21:36:52.514Z,53.38
2022-12-15T21:39:30.006Z,52.59
2022-12-15T21:41:59.993Z,52.24
2022-12-15T21:44:27.664Z,52.13
2022-12-15T21:46:55.275Z,52.31
2022-12-15T21:49:23.410Z,52.59
2022-12-15T21:51:55.124Z,52.52
2022-12-15T21:57:17.892Z,51.76
2022-12-15T21:59:45.498Z,53.93
2022-12-15T22:02:25.990Z,52.49
2022-12-15T22:04:54.832Z,50.36
2022-12-15T22:07:22.854Z,48.96
2022-12-15T22:09:51.750Z,46.39
2022-12-15T22:12:22.458Z,43.95
2022-12-15T22:14:50.216Z,41.79
2022-12-15T22:17:21.706Z,40.56
2022-12-15T22:19:49.346Z,39.84
2022-12-15T22:22:17.234Z,37.77
2022-12-15T22:24:44.948Z,37.74
2022-12-15T22:27:21.527Z,40.44
2022-12-15T22:29:50.184Z,42.35
2022-12-15T22:32:17.814Z,44.43
2022-12-15T22:34:45.485Z,46.52
2022-12-15T22:37:13.115Z,47.67
2022-12-15T22:39:40.718Z,49.02
2022-12-15T22:42:14.900Z,50.22
2022-12-15T22:44:42.583Z,51.83
2022-12-15T22:47:10.609Z,50.96
2022-12-15T22:49:40.565Z,54.09
2022-12-15T22:52:21.027Z,60.75
2022-12-15T22:54:48.717Z,59.41
2022-12-15T22:57:22.980Z,56.54
2022-12-15T23:00:00.375Z,54.45
2022-12-15T23:02:33.057Z,53.50
2022-12-15T23:05:01.929Z,54.28
2022-12-15T23:07:29.629Z,51.46
2022-12-15T23:10:17.569Z,48.14
2022-12-15T23:12:45.246Z,47.15
2022-12-15T23:15:31.594Z,47.49
2022-12-15T23:17:59.883Z,49.35
2022-12-15T23:20:27.567Z,46.88
2022-12-15T23:22:55.211Z,46.33
2022-12-15T23:25:22.863Z,44.17
2022-12-15T23:27:50.538Z,43.88
2022-12-15T23:30:18.463Z,43.00
2022-12-15T23:32:46.458Z,42.67
2022-12-15T23:35:14.635Z,42.47
2022-12-15T23:37:42.499Z,42.90
2022-12-15T23:40:10.997Z,43.64
2022-12-15T23:42:38.609Z,40.37
2022-12-15T23:45:07.106Z,40.49
2022-12-15T23:47:34.788Z,41.97
2022-12-15T23:50:02.479Z,44.68
2022-12-15T23:52:30.436Z,46.83
2022-12-15T23:54:57.995Z,48.14
2022-12-15T23:57:25.593Z,49.70
2022-12-15T23:59:53.173Z,51.11
